sensor_id;sensor_type;location;lat;lon;timestamp;pressure;altitude;pressure_sealevel;temperature;humidity
66381;BME280;53177;52.648;1.214;2023-05-03T00:01:36;102506.31;;;5.55;85.61
66381;BME280;53177;52.648;1.214;2023-05-03T00:04:02;102511.69;;;5.60;85.43
66381;BME280;53177;52.648;1.214;2023-05-03T00:06:28;102504.72;;;5.62;85.23
66381;BME280;53177;52.648;1.214;2023-05-03T00:08:53;102507.31;;;5.60;85.25
66381;BME280;53177;52.648;1.214;2023-05-03T00:11:18;102493.47;;;5.66;84.51
66381;BME280;53177;52.648;1.214;2023-05-03T00:13:45;102491.81;;;5.69;84.59
66381;BME280;53177;52.648;1.214;2023-05-03T00:16:10;102488.38;;;5.72;84.26
66381;BME280;53177;52.648;1.214;2023-05-03T00:18:36;102485.94;;;5.45;85.02
66381;BME280;53177;52.648;1.214;2023-05-03T00:21:01;102487.31;;;5.31;86.66
66381;BME280;53177;52.648;1.214;2023-05-03T00:23:27;102495.59;;;5.15;87.43
66381;BME280;53177;52.648;1.214;2023-05-03T00:25:55;102506.31;;;4.93;88.77
66381;BME280;53177;52.648;1.214;2023-05-03T00:28:23;102505.59;;;4.98;88.81
66381;BME280;53177;52.648;1.214;2023-05-03T00:30:49;102506.50;;;4.99;88.75
66381;BME280;53177;52.648;1.214;2023-05-03T00:33:15;102498.13;;;5.12;87.47
66381;BME280;53177;52.648;1.214;2023-05-03T00:35:41;102499.25;;;4.90;89.38
66381;BME280;53177;52.648;1.214;2023-05-03T00:38:06;102511.31;;;4.85;89.58
66381;BME280;53177;52.648;1.214;2023-05-03T00:40:32;102518.13;;;4.78;89.99
66381;BME280;53177;52.648;1.214;2023-05-03T00:42:57;102518.41;;;4.87;89.42
66381;BME280;53177;52.648;1.214;2023-05-03T00:45:22;102506.31;;;4.93;88.66
66381;BME280;53177;52.648;1.214;2023-05-03T00:47:48;102515.41;;;4.75;90.05
66381;BME280;53177;52.648;1.214;2023-05-03T00:50:15;102522.53;;;4.79;90.11
66381;BME280;53177;52.648;1.214;2023-05-03T00:52:41;102514.38;;;4.70;90.57
66381;BME280;53177;52.648;1.214;2023-05-03T00:55:08;102518.22;;;4.53;91.54
66381;BME280;53177;52.648;1.214;2023-05-03T00:57:33;102530.50;;;4.54;91.70
66381;BME280;53177;52.648;1.214;2023-05-03T00:59:59;102527.63;;;4.75;90.22
66381;BME280;53177;52.648;1.214;2023-05-03T01:02:25;102520.47;;;4.99;89.16
66381;BME280;53177;52.648;1.214;2023-05-03T01:04:51;102520.13;;;4.87;88.86
66381;BME280;53177;52.648;1.214;2023-05-03T01:12:49;102516.75;;;4.61;90.66
66381;BME280;53177;52.648;1.214;2023-05-03T01:18:13;102520.97;;;4.29;92.21
66381;BME280;53177;52.648;1.214;2023-05-03T01:20:42;102529.72;;;4.30;92.83
66381;BME280;53177;52.648;1.214;2023-05-03T01:25:56;102544.38;;;4.52;92.31
66381;BME280;53177;52.648;1.214;2023-05-03T01:28:21;102537.47;;;4.54;92.16
66381;BME280;53177;52.648;1.214;2023-05-03T01:30:49;102533.16;;;4.56;90.99
66381;BME280;53177;52.648;1.214;2023-05-03T01:33:32;102533.00;;;4.51;92.13
66381;BME280;53177;52.648;1.214;2023-05-03T01:36:12;102537.63;;;4.31;92.69
66381;BME280;53177;52.648;1.214;2023-05-03T01:38:38;102544.59;;;4.31;93.17
66381;BME280;53177;52.648;1.214;2023-05-03T01:41:08;102543.25;;;4.17;93.91
66381;BME280;53177;52.648;1.214;2023-05-03T01:43:35;102548.41;;;4.14;94.14
66381;BME280;53177;52.648;1.214;2023-05-03T01:46:02;102554.66;;;4.19;93.74
66381;BME280;53177;52.648;1.214;2023-05-03T01:48:27;102562.94;;;4.31;93.73
66381;BME280;53177;52.648;1.214;2023-05-03T01:50:52;102550.09;;;4.67;92.44
66381;BME280;53177;52.648;1.214;2023-05-03T01:53:18;102544.06;;;4.99;89.95
66381;BME280;53177;52.648;1.214;2023-05-03T01:55:44;102547.44;;;4.65;89.79
66381;BME280;53177;52.648;1.214;2023-05-03T01:58:09;102550.56;;;4.54;91.72
66381;BME280;53177;52.648;1.214;2023-05-03T02:00:35;102547.25;;;4.87;89.75
66381;BME280;53177;52.648;1.214;2023-05-03T02:03:00;102541.44;;;4.99;88.34
66381;BME280;53177;52.648;1.214;2023-05-03T02:05:25;102538.78;;;4.68;88.99
66381;BME280;53177;52.648;1.214;2023-05-03T02:07:51;102532.31;;;4.28;91.63
66381;BME280;53177;52.648;1.214;2023-05-03T02:10:17;102524.53;;;4.05;92.96
66381;BME280;53177;52.648;1.214;2023-05-03T02:12:43;102534.75;;;3.97;94.44
66381;BME280;53177;52.648;1.214;2023-05-03T02:15:09;102531.19;;;3.95;94.53
66381;BME280;53177;52.648;1.214;2023-05-03T02:17:35;102527.94;;;4.02;94.38
66381;BME280;53177;52.648;1.214;2023-05-03T02:20:02;102526.25;;;4.04;93.91
66381;BME280;53177;52.648;1.214;2023-05-03T02:22:30;102523.47;;;4.00;94.29
66381;BME280;53177;52.648;1.214;2023-05-03T02:24:55;102513.75;;;3.96;95.12
66381;BME280;53177;52.648;1.214;2023-05-03T02:27:20;102523.59;;;4.03;95.13
66381;BME280;53177;52.648;1.214;2023-05-03T02:29:46;102520.94;;;4.01;95.39
66381;BME280;53177;52.648;1.214;2023-05-03T02:32:11;102521.66;;;3.97;95.50
66381;BME280;53177;52.648;1.214;2023-05-03T02:34:38;102521.66;;;3.97;95.36
66381;BME280;53177;52.648;1.214;2023-05-03T02:37:03;102524.19;;;3.94;95.88
66381;BME280;53177;52.648;1.214;2023-05-03T02:39:28;102525.16;;;3.98;96.32
66381;BME280;53177;52.648;1.214;2023-05-03T02:41:54;102517.81;;;4.13;95.45
66381;BME280;53177;52.648;1.214;2023-05-03T02:44:19;102526.69;;;4.18;94.19
66381;BME280;53177;52.648;1.214;2023-05-03T02:46:44;102521.69;;;4.24;93.61
66381;BME280;53177;52.648;1.214;2023-05-03T02:49:10;102521.66;;;3.97;94.35
66381;BME280;53177;52.648;1.214;2023-05-03T02:51:35;102532.31;;;3.76;95.78
66381;BME280;53177;52.648;1.214;2023-05-03T02:54:01;102527.72;;;3.69;96.24
66381;BME280;53177;52.648;1.214;2023-05-03T02:56:27;102530.16;;;3.65;97.08
66381;BME280;53177;52.648;1.214;2023-05-03T02:58:53;102527.47;;;3.63;97.28
66381;BME280;53177;52.648;1.214;2023-05-03T03:01:19;102528.81;;;3.76;96.58
66381;BME280;53177;52.648;1.214;2023-05-03T03:03:44;102516.63;;;3.76;95.76
66381;BME280;53177;52.648;1.214;2023-05-03T03:06:10;102512.69;;;3.64;96.60
66381;BME280;53177;52.648;1.214;2023-05-03T03:08:35;102507.25;;;3.58;96.68
66381;BME280;53177;52.648;1.214;2023-05-03T03:11:02;102507.28;;;3.59;96.83
66381;BME280;53177;52.648;1.214;2023-05-03T03:13:28;102495.94;;;3.59;97.14
66381;BME280;53177;52.648;1.214;2023-05-03T03:15:53;102500.03;;;3.51;96.88
66381;BME280;53177;52.648;1.214;2023-05-03T03:18:18;102498.06;;;3.45;97.30
66381;BME280;53177;52.648;1.214;2023-05-03T03:20:44;102495.53;;;3.47;97.94
66381;BME280;53177;52.648;1.214;2023-05-03T03:23:09;102489.59;;;3.52;97.33
66381;BME280;53177;52.648;1.214;2023-05-03T03:25:35;102488.72;;;3.52;96.98
66381;BME280;53177;52.648;1.214;2023-05-03T03:28:00;102482.28;;;3.42;97.39
66381;BME280;53177;52.648;1.214;2023-05-03T03:30:26;102476.97;;;3.39;97.92
66381;BME280;53177;52.648;1.214;2023-05-03T03:32:52;102477.84;;;3.39;98.01
66381;BME280;53177;52.648;1.214;2023-05-03T03:35:18;102469.84;;;3.35;98.17
66381;BME280;53177;52.648;1.214;2023-05-03T03:37:43;102459.47;;;3.38;98.10
66381;BME280;53177;52.648;1.214;2023-05-03T03:40:09;102457.03;;;3.42;97.93
66381;BME280;53177;52.648;1.214;2023-05-03T03:42:35;102456.97;;;3.41;97.49
66381;BME280;53177;52.648;1.214;2023-05-03T03:45:01;102454.41;;;3.42;97.41
66381;BME280;53177;52.648;1.214;2023-05-03T03:47:27;102456.03;;;3.39;97.55
66381;BME280;53177;52.648;1.214;2023-05-03T03:50:00;102453.31;;;3.36;97.47
66381;BME280;53177;52.648;1.214;2023-05-03T03:52:31;102453.16;;;3.31;97.92
66381;BME280;53177;52.648;1.214;2023-05-03T03:54:59;102459.06;;;3.26;98.19
66381;BME280;53177;52.648;1.214;2023-05-03T03:57:28;102472.97;;;3.25;98.38
66381;BME280;53177;52.648;1.214;2023-05-03T03:59:58;102468.56;;;3.24;98.59
66381;BME280;53177;52.648;1.214;2023-05-03T04:02:32;102466.97;;;3.27;98.35
66381;BME280;53177;52.648;1.214;2023-05-03T04:05:01;102459.38;;;3.35;98.27
66381;BME280;53177;52.648;1.214;2023-05-03T04:07:28;102453.09;;;3.30;97.88
66381;BME280;53177;52.648;1.214;2023-05-03T04:09:54;102454.09;;;3.33;97.90
66381;BME280;53177;52.648;1.214;2023-05-03T04:12:21;102454.19;;;3.36;97.77
66381;BME280;53177;52.648;1.214;2023-05-03T04:14:46;102451.81;;;3.42;97.73
66381;BME280;53177;52.648;1.214;2023-05-03T04:17:11;102432.41;;;3.63;97.60
66381;BME280;53177;52.648;1.214;2023-05-03T04:19:37;102427.28;;;3.92;96.36
66381;BME280;53177;52.648;1.214;2023-05-03T04:22:03;102435.94;;;3.63;94.51
66381;BME280;53177;52.648;1.214;2023-05-03T04:24:28;102449.13;;;3.41;95.58
66381;BME280;53177;52.648;1.214;2023-05-03T04:26:55;102448.91;;;3.60;96.34
66381;BME280;53177;52.648;1.214;2023-05-03T04:29:20;102431.19;;;3.52;95.34
66381;BME280;53177;52.648;1.214;2023-05-03T04:31:45;102438.13;;;3.51;96.05
66381;BME280;53177;52.648;1.214;2023-05-03T04:34:11;102433.03;;;3.54;95.88
66381;BME280;53177;52.648;1.214;2023-05-03T04:36:40;102440.44;;;3.42;96.90
66381;BME280;53177;52.648;1.214;2023-05-03T04:39:10;102450.66;;;3.34;97.13
66381;BME280;53177;52.648;1.214;2023-05-03T04:41:37;102458.66;;;3.39;97.54
66381;BME280;53177;52.648;1.214;2023-05-03T04:44:04;102450.13;;;3.44;97.59
66381;BME280;53177;52.648;1.214;2023-05-03T04:46:29;102464.88;;;3.42;97.63
66381;BME280;53177;52.648;1.214;2023-05-03T04:48:55;102477.88;;;3.41;97.65
66381;BME280;53177;52.648;1.214;2023-05-03T04:51:21;102477.16;;;3.45;98.04
66381;BME280;53177;52.648;1.214;2023-05-03T04:53:47;102474.63;;;3.48;98.06
66381;BME280;53177;52.648;1.214;2023-05-03T04:56:13;102475.75;;;3.55;97.84
66381;BME280;53177;52.648;1.214;2023-05-03T04:58:38;102478.50;;;3.59;97.20
66381;BME280;53177;52.648;1.214;2023-05-03T05:01:04;102477.31;;;3.50;97.72
66381;BME280;53177;52.648;1.214;2023-05-03T05:03:29;102475.59;;;3.50;97.91
66381;BME280;53177;52.648;1.214;2023-05-03T05:05:55;102473.81;;;3.49;97.91
66381;BME280;53177;52.648;1.214;2023-05-03T05:08:21;102474.88;;;3.54;98.15
66381;BME280;53177;52.648;1.214;2023-05-03T05:10:46;102476.69;;;3.57;97.91
66381;BME280;53177;52.648;1.214;2023-05-03T05:13:11;102476.22;;;3.68;97.97
66381;BME280;53177;52.648;1.214;2023-05-03T05:15:37;102480.09;;;3.79;97.71
66381;BME280;53177;52.648;1.214;2023-05-03T05:18:02;102480.97;;;3.80;97.46
66381;BME280;53177;52.648;1.214;2023-05-03T05:20:28;102481.00;;;3.81;97.48
66381;BME280;53177;52.648;1.214;2023-05-03T05:22:53;102477.66;;;3.85;97.19
66381;BME280;53177;52.648;1.214;2023-05-03T05:25:19;102483.13;;;3.93;97.45
66381;BME280;53177;52.648;1.214;2023-05-03T05:27:45;102489.34;;;3.97;96.76
66381;BME280;53177;52.648;1.214;2023-05-03T05:30:11;102484.19;;;3.98;97.12
66381;BME280;53177;52.648;1.214;2023-05-03T05:32:38;102500.06;;;4.04;96.69
66381;BME280;53177;52.648;1.214;2023-05-03T05:35:03;102488.97;;;4.11;96.10
66381;BME280;53177;52.648;1.214;2023-05-03T05:37:29;102495.28;;;4.18;95.94
66381;BME280;53177;52.648;1.214;2023-05-03T05:39:55;102493.84;;;4.27;96.46
66381;BME280;53177;52.648;1.214;2023-05-03T05:42:20;102493.25;;;4.36;96.21
66381;BME280;53177;52.648;1.214;2023-05-03T05:44:46;102491.63;;;4.39;95.50
66381;BME280;53177;52.648;1.214;2023-05-03T05:47:11;102489.13;;;4.44;95.72
66381;BME280;53177;52.648;1.214;2023-05-03T05:49:36;102495.41;;;4.49;95.71
66381;BME280;53177;52.648;1.214;2023-05-03T05:52:02;102499.06;;;4.54;95.53
66381;BME280;53177;52.648;1.214;2023-05-03T05:54:27;102498.34;;;4.60;96.00
66381;BME280;53177;52.648;1.214;2023-05-03T05:56:53;102502.03;;;4.66;95.86
66381;BME280;53177;52.648;1.214;2023-05-03T05:59:18;102501.25;;;4.69;95.24
66381;BME280;53177;52.648;1.214;2023-05-03T06:01:44;102506.75;;;4.78;95.84
66381;BME280;53177;52.648;1.214;2023-05-03T06:04:14;102510.50;;;4.86;95.10
66381;BME280;53177;52.648;1.214;2023-05-03T06:06:39;102508.00;;;4.90;94.76
66381;BME280;53177;52.648;1.214;2023-05-03T06:09:06;102511.75;;;4.99;94.10
66381;BME280;53177;52.648;1.214;2023-05-03T06:11:33;102512.75;;;5.04;94.43
66381;BME280;53177;52.648;1.214;2023-05-03T06:13:59;102512.00;;;5.08;94.22
66381;BME280;53177;52.648;1.214;2023-05-03T06:16:24;102527.09;;;5.16;93.65
66381;BME280;53177;52.648;1.214;2023-05-03T06:18:50;102527.25;;;5.22;94.24
66381;BME280;53177;52.648;1.214;2023-05-03T06:21:16;102520.44;;;5.29;93.56
66381;BME280;53177;52.648;1.214;2023-05-03T06:23:41;102519.69;;;5.33;93.71
66381;BME280;53177;52.648;1.214;2023-05-03T06:26:07;102519.19;;;5.46;92.48
66381;BME280;53177;52.648;1.214;2023-05-03T06:28:33;102529.03;;;5.55;92.56
66381;BME280;53177;52.648;1.214;2023-05-03T06:30:59;102517.94;;;5.65;92.61
66381;BME280;53177;52.648;1.214;2023-05-03T06:33:24;102526.09;;;5.75;92.42
66381;BME280;53177;52.648;1.214;2023-05-03T06:35:50;102519.50;;;5.90;90.84
66381;BME280;53177;52.648;1.214;2023-05-03T06:38:16;102520.78;;;6.05;90.04
66381;BME280;53177;52.648;1.214;2023-05-03T06:40:44;102522.81;;;6.17;89.00
66381;BME280;53177;52.648;1.214;2023-05-03T06:43:09;102516.06;;;6.28;89.21
66381;BME280;53177;52.648;1.214;2023-05-03T06:45:35;102517.13;;;6.36;88.61
66381;BME280;53177;52.648;1.214;2023-05-03T06:48:00;102519.22;;;6.51;87.83
66381;BME280;53177;52.648;1.214;2023-05-03T06:50:25;102512.28;;;6.54;88.87
66381;BME280;53177;52.648;1.214;2023-05-03T06:52:53;102509.91;;;6.65;89.24
66381;BME280;53177;52.648;1.214;2023-05-03T06:55:18;102506.72;;;6.79;88.49
66381;BME280;53177;52.648;1.214;2023-05-03T06:57:43;102511.44;;;6.94;82.87
66381;BME280;53177;52.648;1.214;2023-05-03T07:00:13;102507.19;;;7.02;83.97
66381;BME280;53177;52.648;1.214;2023-05-03T07:02:38;102502.13;;;7.11;83.20
66381;BME280;53177;52.648;1.214;2023-05-03T07:05:04;102495.22;;;7.16;82.99
66381;BME280;53177;52.648;1.214;2023-05-03T07:07:31;102493.66;;;7.26;81.46
66381;BME280;53177;52.648;1.214;2023-05-03T07:09:57;102489.56;;;7.43;82.40
66381;BME280;53177;52.648;1.214;2023-05-03T07:12:22;102488.81;;;7.50;80.98
66381;BME280;53177;52.648;1.214;2023-05-03T07:14:54;102487.38;;;7.66;78.90
66381;BME280;53177;52.648;1.214;2023-05-03T07:17:20;102487.50;;;7.72;79.29
66381;BME280;53177;52.648;1.214;2023-05-03T07:19:49;102483.13;;;7.74;78.96
66381;BME280;53177;52.648;1.214;2023-05-03T07:22:15;102485.03;;;7.84;77.51
66381;BME280;53177;52.648;1.214;2023-05-03T07:24:40;102487.97;;;8.01;78.25
66381;BME280;53177;52.648;1.214;2023-05-03T07:27:05;102475.00;;;8.14;76.33
66381;BME280;53177;52.648;1.214;2023-05-03T07:29:31;102480.44;;;8.25;76.29
66381;BME280;53177;52.648;1.214;2023-05-03T07:31:57;102483.19;;;8.29;74.63
66381;BME280;53177;52.648;1.214;2023-05-03T07:34:22;102482.41;;;8.35;74.51
66381;BME280;53177;52.648;1.214;2023-05-03T07:36:48;102478.94;;;8.41;73.27
66381;BME280;53177;52.648;1.214;2023-05-03T07:39:13;102477.03;;;8.29;71.87
66381;BME280;53177;52.648;1.214;2023-05-03T07:41:38;102478.06;;;8.40;73.47
66381;BME280;53177;52.648;1.214;2023-05-03T07:44:04;102480.69;;;8.40;73.02
66381;BME280;53177;52.648;1.214;2023-05-03T07:46:29;102470.13;;;8.37;72.65
66381;BME280;53177;52.648;1.214;2023-05-03T07:49:00;102462.97;;;8.30;72.33
66381;BME280;53177;52.648;1.214;2023-05-03T07:51:26;102464.94;;;8.45;73.27
66381;BME280;53177;52.648;1.214;2023-05-03T07:53:53;102476.59;;;8.62;72.26
66381;BME280;53177;52.648;1.214;2023-05-03T07:56:18;102475.13;;;8.82;72.40
66381;BME280;53177;52.648;1.214;2023-05-03T07:58:43;102469.06;;;8.91;72.35
66381;BME280;53177;52.648;1.214;2023-05-03T08:01:09;102469.16;;;8.98;71.78
66381;BME280;53177;52.648;1.214;2023-05-03T08:03:34;102472.84;;;9.11;71.40
66381;BME280;53177;52.648;1.214;2023-05-03T08:06:00;102472.13;;;9.25;70.80
66381;BME280;53177;52.648;1.214;2023-05-03T08:08:25;102470.34;;;9.24;71.35
66381;BME280;53177;52.648;1.214;2023-05-03T08:10:51;102465.16;;;9.34;69.67
66381;BME280;53177;52.648;1.214;2023-05-03T08:13:17;102474.91;;;9.41;70.18
66381;BME280;53177;52.648;1.214;2023-05-03T08:15:42;102476.53;;;9.28;69.68
66381;BME280;53177;52.648;1.214;2023-05-03T08:18:09;102459.91;;;9.37;70.41
66381;BME280;53177;52.648;1.214;2023-05-03T08:20:35;102466.16;;;9.46;70.05
66381;BME280;53177;52.648;1.214;2023-05-03T08:23:01;102461.59;;;9.28;69.81
66381;BME280;53177;52.648;1.214;2023-05-03T08:25:26;102470.56;;;9.47;68.94
66381;BME280;53177;52.648;1.214;2023-05-03T08:27:52;102459.38;;;9.75;69.96
66381;BME280;53177;52.648;1.214;2023-05-03T08:30:19;102458.66;;;9.90;66.53
66381;BME280;53177;52.648;1.214;2023-05-03T08:32:49;102467.47;;;9.92;67.57
66381;BME280;53177;52.648;1.214;2023-05-03T08:35:15;102469.53;;;10.28;66.46
66381;BME280;53177;52.648;1.214;2023-05-03T08:37:41;102468.22;;;9.74;66.83
66381;BME280;53177;52.648;1.214;2023-05-03T08:40:08;102468.47;;;10.08;66.89
66381;BME280;53177;52.648;1.214;2023-05-03T08:42:45;102468.72;;;10.43;66.20
66381;BME280;53177;52.648;1.214;2023-05-03T08:45:12;102467.06;;;10.55;65.49
66381;BME280;53177;52.648;1.214;2023-05-03T08:47:39;102471.59;;;10.85;65.96
66381;BME280;53177;52.648;1.214;2023-05-03T08:50:09;102469.88;;;10.98;63.76
66381;BME280;53177;52.648;1.214;2023-05-03T08:52:35;102476.09;;;11.03;62.53
66381;BME280;53177;52.648;1.214;2023-05-03T08:55:02;102478.59;;;10.69;63.09
66381;BME280;53177;52.648;1.214;2023-05-03T08:57:28;102467.91;;;10.48;64.89
66381;BME280;53177;52.648;1.214;2023-05-03T08:59:54;102467.06;;;10.55;65.45
66381;BME280;53177;52.648;1.214;2023-05-03T09:02:25;102460.97;;;10.73;63.65
66381;BME280;53177;52.648;1.214;2023-05-03T09:04:51;102460.22;;;11.13;63.66
66381;BME280;53177;52.648;1.214;2023-05-03T09:07:16;102454.13;;;11.61;62.43
66381;BME280;53177;52.648;1.214;2023-05-03T09:09:42;102451.50;;;11.63;62.62
66381;BME280;53177;52.648;1.214;2023-05-03T09:12:07;102452.44;;;11.74;61.78
66381;BME280;53177;52.648;1.214;2023-05-03T09:14:43;102454.16;;;11.70;61.82
66381;BME280;53177;52.648;1.214;2023-05-03T09:17:16;102451.50;;;11.60;62.26
66381;BME280;53177;52.648;1.214;2023-05-03T09:20:11;102442.66;;;11.65;60.33
66381;BME280;53177;52.648;1.214;2023-05-03T09:22:49;102445.34;;;12.02;60.29
66381;BME280;53177;52.648;1.214;2023-05-03T09:25:15;102445.34;;;11.97;59.57
66381;BME280;53177;52.648;1.214;2023-05-03T09:27:41;102450.66;;;12.11;59.53
66381;BME280;53177;52.648;1.214;2023-05-03T09:30:17;102450.59;;;12.29;59.15
66381;BME280;53177;52.648;1.214;2023-05-03T09:32:47;102454.09;;;12.52;59.75
66381;BME280;53177;52.648;1.214;2023-05-03T09:35:13;102448.75;;;12.63;58.00
66381;BME280;53177;52.648;1.214;2023-05-03T09:37:39;102453.94;;;12.87;58.75
66381;BME280;53177;52.648;1.214;2023-05-03T09:40:05;102459.22;;;12.99;57.13
66381;BME280;53177;52.648;1.214;2023-05-03T09:42:35;102454.84;;;12.85;55.94
66381;BME280;53177;52.648;1.214;2023-05-03T09:45:01;102455.91;;;12.20;56.68
66381;BME280;53177;52.648;1.214;2023-05-03T09:47:26;102462.03;;;12.57;58.28
66381;BME280;53177;52.648;1.214;2023-05-03T09:49:52;102457.38;;;13.16;57.46
66381;BME280;53177;52.648;1.214;2023-05-03T09:52:20;102453.72;;;13.36;56.86
66381;BME280;53177;52.648;1.214;2023-05-03T09:54:47;102458.34;;;13.00;56.49
66381;BME280;53177;52.648;1.214;2023-05-03T09:57:12;102459.28;;;12.86;55.86
66381;BME280;53177;52.648;1.214;2023-05-03T09:59:39;102454.75;;;13.04;57.08
66381;BME280;53177;52.648;1.214;2023-05-03T10:02:06;102458.91;;;13.54;59.32
66381;BME280;53177;52.648;1.214;2023-05-03T10:04:40;102464.53;;;12.95;55.00
66381;BME280;53177;52.648;1.214;2023-05-03T10:07:11;102467.31;;;12.71;55.48
66381;BME280;53177;52.648;1.214;2023-05-03T10:09:39;102460.94;;;13.06;56.55
66381;BME280;53177;52.648;1.214;2023-05-03T10:12:08;102466.13;;;13.37;57.06
66381;BME280;53177;52.648;1.214;2023-05-03T10:14:34;102457.72;;;13.94;53.08
66381;BME280;53177;52.648;1.214;2023-05-03T10:17:03;102461.72;;;13.33;51.88
66381;BME280;53177;52.648;1.214;2023-05-03T10:22:08;102465.78;;;13.85;53.08
66381;BME280;53177;52.648;1.214;2023-05-03T10:24:35;102462.56;;;13.41;57.59
66381;BME280;53177;52.648;1.214;2023-05-03T10:27:01;102458.97;;;13.48;56.28
66381;BME280;53177;52.648;1.214;2023-05-03T10:32:29;102456.72;;;14.07;56.43
66381;BME280;53177;52.648;1.214;2023-05-03T10:34:59;102463.66;;;14.21;53.75
66381;BME280;53177;52.648;1.214;2023-05-03T10:37:25;102459.38;;;14.07;51.53
66381;BME280;53177;52.648;1.214;2023-05-03T10:39:52;102459.88;;;13.44;52.44
66381;BME280;53177;52.648;1.214;2023-05-03T10:42:20;102456.44;;;13.24;55.68
66381;BME280;53177;52.648;1.214;2023-05-03T10:44:53;102452.41;;;13.91;55.59
66381;BME280;53177;52.648;1.214;2023-05-03T10:47:21;102456.63;;;14.18;52.72
66381;BME280;53177;52.648;1.214;2023-05-03T10:55:14;102449.16;;;13.54;56.41
66381;BME280;53177;52.648;1.214;2023-05-03T10:57:42;102444.28;;;14.08;56.80
66381;BME280;53177;52.648;1.214;2023-05-03T11:00:15;102436.88;;;13.38;51.96
66381;BME280;53177;52.648;1.214;2023-05-03T11:05:38;102444.09;;;14.28;59.21
66381;BME280;53177;52.648;1.214;2023-05-03T11:08:15;102438.44;;;13.63;56.64
66381;BME280;53177;52.648;1.214;2023-05-03T11:10:45;102434.59;;;14.02;53.33
66381;BME280;53177;52.648;1.214;2023-05-03T11:13:11;102436.94;;;14.31;52.64
66381;BME280;53177;52.648;1.214;2023-05-03T11:15:37;102437.63;;;14.53;49.88
66381;BME280;53177;52.648;1.214;2023-05-03T11:18:07;102428.19;;;14.98;52.80
66381;BME280;53177;52.648;1.214;2023-05-03T11:20:34;102424.75;;;14.90;50.87
66381;BME280;53177;52.648;1.214;2023-05-03T11:23:01;102421.97;;;14.99;50.59
66381;BME280;53177;52.648;1.214;2023-05-03T11:25:27;102431.00;;;14.86;50.73
66381;BME280;53177;52.648;1.214;2023-05-03T11:27:52;102430.47;;;14.58;51.78
66381;BME280;53177;52.648;1.214;2023-05-03T11:30:19;102417.94;;;13.81;50.47
66381;BME280;53177;52.648;1.214;2023-05-03T11:32:44;102417.88;;;13.88;57.27
66381;BME280;53177;52.648;1.214;2023-05-03T11:35:13;102420.63;;;13.78;51.75
66381;BME280;53177;52.648;1.214;2023-05-03T11:37:40;102421.22;;;14.08;58.23
66381;BME280;53177;52.648;1.214;2023-05-03T11:40:12;102421.44;;;13.89;53.33
66381;BME280;53177;52.648;1.214;2023-05-03T11:42:59;102421.03;;;14.30;54.71
66381;BME280;53177;52.648;1.214;2023-05-03T11:45:27;102409.94;;;14.69;56.01
66381;BME280;53177;52.648;1.214;2023-05-03T11:47:54;102411.88;;;15.19;54.58
66381;BME280;53177;52.648;1.214;2023-05-03T11:50:45;102407.44;;;15.20;53.38
66381;BME280;53177;52.648;1.214;2023-05-03T11:53:14;102408.38;;;15.19;51.44
66381;BME280;53177;52.648;1.214;2023-05-03T11:55:41;102405.78;;;15.13;51.13
66381;BME280;53177;52.648;1.214;2023-05-03T11:58:24;102409.34;;;14.43;50.37
66381;BME280;53177;52.648;1.214;2023-05-03T12:00:52;102401.88;;;13.91;50.93
66381;BME280;53177;52.648;1.214;2023-05-03T12:03:26;102402.00;;;13.79;54.41
66381;BME280;53177;52.648;1.214;2023-05-03T12:05:53;102394.34;;;14.34;53.22
66381;BME280;53177;52.648;1.214;2023-05-03T12:08:19;102389.25;;;14.88;54.51
66381;BME280;53177;52.648;1.214;2023-05-03T12:10:46;102382.38;;;15.31;53.39
66381;BME280;53177;52.648;1.214;2023-05-03T12:13:12;102374.47;;;15.27;49.00
66381;BME280;53177;52.648;1.214;2023-05-03T12:15:39;102381.50;;;15.32;51.13
66381;BME280;53177;52.648;1.214;2023-05-03T12:18:09;102368.19;;;15.31;51.92
66381;BME280;53177;52.648;1.214;2023-05-03T12:20:36;102361.13;;;15.28;53.48
66381;BME280;53177;52.648;1.214;2023-05-03T12:23:06;102367.28;;;15.30;56.85
66381;BME280;53177;52.648;1.214;2023-05-03T12:25:32;102355.97;;;15.16;52.28
66381;BME280;53177;52.648;1.214;2023-05-03T12:28:03;102358.78;;;15.07;49.61
66381;BME280;53177;52.648;1.214;2023-05-03T12:30:29;102355.53;;;15.43;52.20
66381;BME280;53177;52.648;1.214;2023-05-03T12:32:55;102353.34;;;15.15;52.23
66381;BME280;53177;52.648;1.214;2023-05-03T12:35:21;102349.44;;;15.37;53.51
66381;BME280;53177;52.648;1.214;2023-05-03T12:37:48;102348.44;;;15.42;53.83
66381;BME280;53177;52.648;1.214;2023-05-03T12:40:16;102347.97;;;15.16;47.70
66381;BME280;53177;52.648;1.214;2023-05-03T12:42:43;102352.97;;;14.79;54.10
66381;BME280;53177;52.648;1.214;2023-05-03T12:45:09;102337.38;;;15.15;55.38
66381;BME280;53177;52.648;1.214;2023-05-03T12:47:35;102331.69;;;15.34;51.63
66381;BME280;53177;52.648;1.214;2023-05-03T12:50:03;102339.91;;;15.22;49.28
66381;BME280;53177;52.648;1.214;2023-05-03T12:52:29;102345.91;;;14.75;51.62
66381;BME280;53177;52.648;1.214;2023-05-03T12:54:56;102339.31;;;14.41;55.90
66381;BME280;53177;52.648;1.214;2023-05-03T12:57:22;102332.88;;;13.76;55.17
66381;BME280;53177;52.648;1.214;2023-05-03T12:59:47;102332.06;;;13.68;57.60
66381;BME280;53177;52.648;1.214;2023-05-03T13:02:17;102333.88;;;14.47;55.69
66381;BME280;53177;52.648;1.214;2023-05-03T13:04:43;102325.53;;;14.73;54.80
66381;BME280;53177;52.648;1.214;2023-05-03T13:07:08;102326.31;;;14.81;51.10
66381;BME280;53177;52.648;1.214;2023-05-03T13:09:39;102326.13;;;14.93;56.55
66381;BME280;53177;52.648;1.214;2023-05-03T13:12:05;102320.44;;;14.57;51.21
66381;BME280;53177;52.648;1.214;2023-05-03T13:14:30;102319.41;;;14.68;51.86
66381;BME280;53177;52.648;1.214;2023-05-03T13:16:56;102326.72;;;15.13;52.71
66381;BME280;53177;52.648;1.214;2023-05-03T13:19:21;102325.56;;;14.71;61.42
66381;BME280;53177;52.648;1.214;2023-05-03T13:21:47;102324.25;;;14.34;53.72